Time;durP1;ratioP1;P1;durP2;ratioP2;P2;SDS_P1;SDS_P2;PMS_P1;PMS_P2;Temp;Humidity;BMP_temperature;BMP_pressure;BME280_temperature;BME280_humidity;BME280_pressure;Samples;Min_cycle;Max_cycle;Signal;HPM_P1;HPM_P2
2022/09/26 00:01:18;;;;;;;2.67;1.40;;;;;;;;;;4999400;28;20423;-79
2022/09/26 00:03:49;;;;;;;2.30;1.20;;;;;;;;;;4999205;28;20120;-78
2022/09/26 00:06:16;;;;;;;3.08;1.40;;;;;;;;;;4982483;28;20021;-79
2022/09/26 00:08:42;;;;;;;2.53;1.55;;;;;;;;;;4999371;28;20112;-78
2022/09/26 00:11:08;;;;;;;3.15;1.58;;;;;;;;;;4999029;28;20112;-79
2022/09/26 00:13:35;;;;;;;2.88;1.38;;;;;;;;;;4982481;28;20034;-78
2022/09/26 00:16:01;;;;;;;2.83;1.80;;;;;;;;;;4982619;28;20034;-78
2022/09/26 00:18:26;;;;;;;4.25;1.75;;;;;;;;;;4982820;28;20044;-78
2022/09/26 00:20:52;;;;;;;3.83;1.38;;;;;;;;;;4998777;28;20042;-78
2022/09/26 00:23:18;;;;;;;2.78;1.40;;;;;;;;;;4982643;28;20033;-78
2022/09/26 00:25:47;;;;;;;2.05;1.00;;;;;;;;;;4998592;28;20427;-78
2022/09/26 00:28:13;;;;;;;3.10;1.30;;;;;;;;;;4999324;28;20033;-78
2022/09/26 00:30:39;;;;;;;3.28;1.50;;;;;;;;;;4998349;28;20456;-78
2022/09/26 00:33:05;;;;;;;2.15;1.27;;;;;;;;;;4998984;28;20034;-78
2022/09/26 00:35:30;;;;;;;4.00;1.73;;;;;;;;;;4998508;28;20021;-78
2022/09/26 00:37:56;;;;;;;2.25;0.90;;;;;;;;;;4998437;28;20030;-78
2022/09/26 00:40:25;;;;;;;2.38;1.10;;;;;;;;;;4982220;28;20439;-79
2022/09/26 00:42:52;;;;;;;3.58;1.20;;;;;;;;;;4967008;28;20109;-78
2022/09/26 00:45:17;;;;;;;2.90;1.30;;;;;;;;;;4998581;28;20038;-78
2022/09/26 00:47:45;;;;;;;3.03;1.30;;;;;;;;;;4978421;28;20506;-78
2022/09/26 00:50:27;;;;;;;2.85;1.42;;;;;;;;;;5021349;28;20445;-78
2022/09/26 00:52:55;;;;;;;3.38;1.42;;;;;;;;;;5011818;28;20034;-78
2022/09/26 00:55:22;;;;;;;3.42;1.73;;;;;;;;;;5024927;28;20025;-79
2022/09/26 00:57:58;;;;;;;2.63;1.17;;;;;;;;;;5018482;28;20041;-79
2022/09/26 01:00:23;;;;;;;3.28;1.60;;;;;;;;;;5001778;28;20036;-79
2022/09/26 01:02:49;;;;;;;2.97;1.45;;;;;;;;;;5017879;28;20465;-78
2022/09/26 01:05:15;;;;;;;3.40;1.35;;;;;;;;;;5017464;28;20039;-78
2022/09/26 01:07:41;;;;;;;2.10;1.02;;;;;;;;;;5017907;28;20479;-78
2022/09/26 01:10:06;;;;;;;2.97;1.13;;;;;;;;;;5017753;28;20032;-78
2022/09/26 01:12:34;;;;;;;3.10;1.40;;;;;;;;;;5017221;28;20025;-79
2022/09/26 01:15:00;;;;;;;5.00;1.42;;;;;;;;;;5017764;28;20119;-79
2022/09/26 01:17:25;;;;;;;3.70;2.08;;;;;;;;;;5016920;28;20044;-78
2022/09/26 01:20:00;;;;;;;2.92;1.15;;;;;;;;;;5017458;28;20387;-78
2022/09/26 01:22:50;;;;;;;2.45;1.27;;;;;;;;;;5000989;28;20116;-78
2022/09/26 01:25:47;;;;;;;4.28;1.40;;;;;;;;;;5017192;28;20554;-79
2022/09/26 01:28:43;;;;;;;2.38;1.25;;;;;;;;;;5051940;28;20044;-78
2022/09/26 01:31:39;;;;;;;3.53;1.77;;;;;;;;;;5017342;28;20021;-78
2022/09/26 01:34:39;;;;;;;3.15;1.42;;;;;;;;;;5033967;28;20498;-79
2022/09/26 01:37:14;;;;;;;2.35;1.13;;;;;;;;;;5035795;28;20075;-79
2022/09/26 01:40:01;;;;;;;3.63;1.73;;;;;;;;;;5000932;28;20056;-78
2022/09/26 01:42:50;;;;;;;2.30;1.20;;;;;;;;;;5002459;28;20167;-79
2022/09/26 01:45:21;;;;;;;2.58;1.23;;;;;;;;;;5001726;28;20044;-78
2022/09/26 01:48:04;;;;;;;4.00;1.40;;;;;;;;;;5023268;28;20118;-78
2022/09/26 01:50:38;;;;;;;2.88;1.30;;;;;;;;;;5036913;28;20513;-79
2022/09/26 01:53:40;;;;;;;2.80;1.10;;;;;;;;;;5053282;28;20039;-78
2022/09/26 01:56:09;;;;;;;3.22;1.65;;;;;;;;;;4967765;28;20046;-79
2022/09/26 01:58:38;;;;;;;4.45;1.35;;;;;;;;;;4981528;28;20021;-79
2022/09/26 02:01:07;;;;;;;2.30;1.15;;;;;;;;;;5000325;28;20048;-78
2022/09/26 02:03:35;;;;;;;2.78;1.35;;;;;;;;;;5017440;28;20562;-79
2022/09/26 02:06:07;;;;;;;3.28;1.63;;;;;;;;;;5000862;28;20029;-78
2022/09/26 02:08:35;;;;;;;3.67;1.60;;;;;;;;;;5000671;28;20021;-79
2022/09/26 02:11:05;;;;;;;2.92;1.17;;;;;;;;;;5016865;28;20033;-78
2022/09/26 02:13:54;;;;;;;4.35;1.23;;;;;;;;;;5000348;28;20048;-78
2022/09/26 02:16:28;;;;;;;2.67;1.17;;;;;;;;;;5036666;28;20033;-78
2022/09/26 02:18:57;;;;;;;2.05;0.93;;;;;;;;;;5033448;28;20032;-79
2022/09/26 02:21:22;;;;;;;3.03;1.08;;;;;;;;;;5001035;28;20059;-78
2022/09/26 02:23:48;;;;;;;2.55;1.20;;;;;;;;;;5000256;28;20506;-78
2022/09/26 02:26:14;;;;;;;3.08;1.33;;;;;;;;;;5001075;28;20037;-79
2022/09/26 02:28:39;;;;;;;2.85;1.33;;;;;;;;;;5000532;28;20021;-79
2022/09/26 02:31:07;;;;;;;2.13;1.02;;;;;;;;;;5004894;28;20037;-78
2022/09/26 02:33:33;;;;;;;2.45;1.15;;;;;;;;;;5020689;28;20601;-78
2022/09/26 02:35:58;;;;;;;3.05;1.08;;;;;;;;;;5020861;28;20120;-79
2022/09/26 02:38:29;;;;;;;3.15;1.50;;;;;;;;;;5004267;28;20082;-78
2022/09/26 02:41:20;;;;;;;3.22;1.25;;;;;;;;;;5020121;28;20069;-79
2022/09/26 02:43:53;;;;;;;2.90;1.20;;;;;;;;;;5020170;28;20160;-79
2022/09/26 02:46:21;;;;;;;2.85;1.00;;;;;;;;;;5036901;28;20056;-78
2022/09/26 02:49:24;;;;;;;4.13;1.17;;;;;;;;;;5051107;28;20556;-79
2022/09/26 02:52:11;;;;;;;2.78;1.40;;;;;;;;;;5074823;28;20024;-79
2022/09/26 02:54:57;;;;;;;2.25;1.00;;;;;;;;;;5069845;28;20064;-79
2022/09/26 02:57:34;;;;;;;1.63;0.70;;;;;;;;;;5020144;28;20494;-79
2022/09/26 03:00:12;;;;;;;2.70;1.17;;;;;;;;;;5036683;28;20040;-79
2022/09/26 03:02:44;;;;;;;4.03;1.15;;;;;;;;;;5003930;28;20454;-79
2022/09/26 03:05:12;;;;;;;3.00;0.80;;;;;;;;;;5021132;28;20060;-79
2022/09/26 03:07:46;;;;;;;2.75;1.20;;;;;;;;;;5004052;28;20052;-79
2022/09/26 03:10:11;;;;;;;2.10;0.98;;;;;;;;;;5003762;28;20025;-79
2022/09/26 03:12:37;;;;;;;3.03;0.70;;;;;;;;;;5019392;28;20446;-78
2022/09/26 03:15:03;;;;;;;2.00;0.98;;;;;;;;;;5003650;28;20033;-78
2022/09/26 03:17:30;;;;;;;3.50;1.00;;;;;;;;;;5003229;28;20099;-79
2022/09/26 03:20:15;;;;;;;2.47;1.23;;;;;;;;;;5003446;28;20115;-79
2022/09/26 03:22:41;;;;;;;2.00;1.10;;;;;;;;;;5020170;28;20044;-78
2022/09/26 03:25:08;;;;;;;2.33;0.90;;;;;;;;;;5019443;28;20491;-78
2022/09/26 03:27:34;;;;;;;3.13;1.20;;;;;;;;;;5003641;28;20032;-78
2022/09/26 03:29:59;;;;;;;1.75;0.90;;;;;;;;;;5003077;28;20021;-79
2022/09/26 03:32:25;;;;;;;2.33;1.08;;;;;;;;;;5019525;28;20112;-78
2022/09/26 03:34:50;;;;;;;1.98;1.25;;;;;;;;;;5001083;28;20132;-79
2022/09/26 03:37:16;;;;;;;1.98;0.90;;;;;;;;;;5016246;28;20116;-79
2022/09/26 03:39:42;;;;;;;2.45;1.23;;;;;;;;;;4999554;28;20475;-79
2022/09/26 03:42:09;;;;;;;2.88;1.20;;;;;;;;;;4998660;28;20064;-79
2022/09/26 03:44:34;;;;;;;2.70;1.20;;;;;;;;;;4999736;28;20041;-78
2022/09/26 03:47:00;;;;;;;3.47;1.17;;;;;;;;;;5000093;28;20042;-79
2022/09/26 03:49:25;;;;;;;2.42;1.13;;;;;;;;;;5039150;28;20376;-79
2022/09/26 03:51:51;;;;;;;2.65;1.42;;;;;;;;;;5022508;28;20054;-79
2022/09/26 03:54:16;;;;;;;1.80;0.80;;;;;;;;;;5020743;28;20024;-79
2022/09/26 03:56:42;;;;;;;2.80;1.20;;;;;;;;;;5019161;28;20067;-78
2022/09/26 03:59:07;;;;;;;2.47;1.00;;;;;;;;;;5002575;28;20131;-79
2022/09/26 04:01:33;;;;;;;2.50;1.17;;;;;;;;;;5015607;28;20064;-78
2022/09/26 04:03:58;;;;;;;1.88;0.70;;;;;;;;;;4983045;28;20487;-78
2022/09/26 04:06:24;;;;;;;1.88;1.05;;;;;;;;;;4985384;28;20044;-79
2022/09/26 04:08:51;;;;;;;2.72;1.17;;;;;;;;;;4981345;28;20132;-79
2022/09/26 04:11:18;;;;;;;1.98;0.88;;;;;;;;;;4998193;28;20026;-78
2022/09/26 04:13:44;;;;;;;1.48;0.93;;;;;;;;;;4998333;28;20049;-79
2022/09/26 04:16:10;;;;;;;2.38;0.90;;;;;;;;;;4998581;28;20152;-79
2022/09/26 04:18:35;;;;;;;3.10;1.20;;;;;;;;;;4998449;28;20033;-79
2022/09/26 04:21:07;;;;;;;1.70;0.80;;;;;;;;;;4999007;28;20107;-79
2022/09/26 04:23:34;;;;;;;2.13;0.82;;;;;;;;;;4999504;28;20036;-79
2022/09/26 04:26:07;;;;;;;1.63;0.90;;;;;;;;;;4999324;28;20033;-79
2022/09/26 04:28:34;;;;;;;2.60;0.90;;;;;;;;;;5015156;28;20077;-79
2022/09/26 04:30:59;;;;;;;2.47;1.10;;;;;;;;;;4999366;28;20064;-79
2022/09/26 04:33:25;;;;;;;3.67;0.82;;;;;;;;;;4998050;28;20089;-78
2022/09/26 04:35:51;;;;;;;2.67;0.93;;;;;;;;;;4966238;28;20052;-78
2022/09/26 04:38:17;;;;;;;1.40;0.73;;;;;;;;;;5031742;28;20061;-78
2022/09/26 04:40:43;;;;;;;1.90;0.77;;;;;;;;;;4998720;28;20220;-78
2022/09/26 04:43:09;;;;;;;1.42;0.80;;;;;;;;;;5014156;28;20108;-78
2022/09/26 04:45:34;;;;;;;2.67;1.00;;;;;;;;;;4982510;28;20476;-78
2022/09/26 04:48:00;;;;;;;1.10;0.70;;;;;;;;;;5015331;28;20440;-79
2022/09/26 04:50:25;;;;;;;1.85;0.80;;;;;;;;;;5037906;28;20428;-79
2022/09/26 04:52:51;;;;;;;3.65;1.17;;;;;;;;;;5021438;28;20405;-78
2022/09/26 04:55:16;;;;;;;2.50;0.95;;;;;;;;;;5024234;28;20033;-78
2022/09/26 04:57:42;;;;;;;2.65;1.02;;;;;;;;;;4981990;28;20364;-78
2022/09/26 05:00:07;;;;;;;2.20;0.95;;;;;;;;;;4998601;28;20478;-79
2022/09/26 05:02:33;;;;;;;1.98;1.02;;;;;;;;;;4993475;28;20390;-79
2022/09/26 05:04:58;;;;;;;1.83;0.85;;;;;;;;;;4998293;28;20033;-78
2022/09/26 05:07:26;;;;;;;3.60;0.95;;;;;;;;;;4998774;28;20041;-78
2022/09/26 05:09:52;;;;;;;2.50;0.85;;;;;;;;;;4998694;28;20030;-79
2022/09/26 05:12:18;;;;;;;3.28;1.02;;;;;;;;;;4997597;28;20109;-78
2022/09/26 05:14:43;;;;;;;3.85;1.15;;;;;;;;;;4997647;28;20128;-79
2022/09/26 05:17:10;;;;;;;6.00;1.50;;;;;;;;;;5014712;28;20492;-78
2022/09/26 05:19:35;;;;;;;5.63;1.35;;;;;;;;;;4998825;28;20037;-78
2022/09/26 05:22:00;;;;;;;5.25;1.70;;;;;;;;;;4997702;28;20384;-79
2022/09/26 05:27:10;;;;;;;11.18;2.22;;;;;;;;;;5002583;28;20021;-78
2022/09/26 05:29:35;;;;;;;8.90;2.08;;;;;;;;;;5021721;28;23861;-79
2022/09/26 05:32:01;;;;;;;6.72;2.30;;;;;;;;;;5042881;28;20402;-79
2022/09/26 05:34:27;;;;;;;72.78;65.10;;;;;;;;;;5006969;28;20103;-79
2022/09/26 05:36:52;;;;;;;54.58;48.65;;;;;;;;;;5010044;28;20029;-79
2022/09/26 05:42:04;;;;;;;31.45;27.63;;;;;;;;;;5021821;28;20043;-78
2022/09/26 05:44:29;;;;;;;32.95;26.55;;;;;;;;;;5017454;28;20049;-78
2022/09/26 05:46:56;;;;;;;28.08;25.08;;;;;;;;;;5003890;28;20091;-79
2022/09/26 05:49:21;;;;;;;29.23;23.15;;;;;;;;;;5037039;28;20108;-78
2022/09/26 05:51:47;;;;;;;31.42;23.85;;;;;;;;;;5036398;28;20488;-78
2022/09/26 05:54:12;;;;;;;31.08;24.55;;;;;;;;;;5035559;28;20036;-78
2022/09/26 05:56:38;;;;;;;29.67;22.38;;;;;;;;;;5000538;28;20387;-78
2022/09/26 05:59:03;;;;;;;24.67;22.00;;;;;;;;;;5016811;28;20048;-78
2022/09/26 06:01:30;;;;;;;27.20;22.15;;;;;;;;;;5000449;28;20482;-78
2022/09/26 06:03:56;;;;;;;28.38;23.08;;;;;;;;;;5001577;28;20040;-78
2022/09/26 06:06:21;;;;;;;26.48;20.70;;;;;;;;;;5037493;28;20033;-79
2022/09/26 06:08:47;;;;;;;23.05;18.75;;;;;;;;;;5037181;28;20037;-79
2022/09/26 06:11:14;;;;;;;20.92;18.40;;;;;;;;;;5021083;28;20083;-80
2022/09/26 06:13:42;;;;;;;22.52;20.10;;;;;;;;;;5020506;28;20508;-79
2022/09/26 06:16:13;;;;;;;28.13;19.45;;;;;;;;;;5021009;28;20041;-79
2022/09/26 06:18:38;;;;;;;23.83;19.35;;;;;;;;;;5020917;28;20133;-79
2022/09/26 06:21:05;;;;;;;21.60;17.63;;;;;;;;;;5020930;28;20045;-78
2022/09/26 06:23:37;;;;;;;17.90;16.00;;;;;;;;;;5020106;28;20546;-79
2022/09/26 06:26:08;;;;;;;20.98;15.60;;;;;;;;;;5018307;28;20099;-79
2022/09/26 06:28:38;;;;;;;23.08;15.85;;;;;;;;;;5004825;28;20028;-79
2022/09/26 06:31:13;;;;;;;15.95;14.23;;;;;;;;;;5020570;28;20061;-79
2022/09/26 06:33:39;;;;;;;18.73;14.57;;;;;;;;;;5019022;28;20064;-80
2022/09/26 06:36:06;;;;;;;19.17;14.88;;;;;;;;;;5020355;28;20023;-79
2022/09/26 06:38:31;;;;;;;21.25;14.18;;;;;;;;;;5019962;28;20120;-80
2022/09/26 06:40:57;;;;;;;18.50;14.30;;;;;;;;;;5018886;28;20179;-79
2022/09/26 06:43:22;;;;;;;15.02;13.23;;;;;;;;;;5018540;28;20037;-80
2022/09/26 06:45:48;;;;;;;17.35;12.73;;;;;;;;;;5002958;28;20030;-79
2022/09/26 06:48:17;;;;;;;13.15;11.10;;;;;;;;;;5013573;28;20397;-80
2022/09/26 06:50:43;;;;;;;14.55;12.23;;;;;;;;;;5023598;28;20032;-80
2022/09/26 06:53:08;;;;;;;14.13;11.68;;;;;;;;;;5023036;28;20071;-80
2022/09/26 06:55:34;;;;;;;14.75;11.20;;;;;;;;;;5024214;28;20057;-80
2022/09/26 06:57:59;;;;;;;15.90;11.52;;;;;;;;;;5000147;28;20396;-80
2022/09/26 07:00:25;;;;;;;13.80;10.90;;;;;;;;;;5000500;28;20033;-80
2022/09/26 07:02:54;;;;;;;15.38;10.50;;;;;;;;;;5001048;28;20402;-81
2022/09/26 07:05:20;;;;;;;14.88;10.82;;;;;;;;;;5020596;28;20048;-81
2022/09/26 07:07:47;;;;;;;11.70;10.20;;;;;;;;;;5019838;28;20028;-80
2022/09/26 07:10:14;;;;;;;13.98;9.85;;;;;;;;;;4987747;28;20020;-80
2022/09/26 07:12:42;;;;;;;11.32;9.63;;;;;;;;;;5019317;28;20075;-81
2022/09/26 07:15:09;;;;;;;15.10;8.98;;;;;;;;;;5019936;28;20033;-80
2022/09/26 07:17:35;;;;;;;12.98;10.00;;;;;;;;;;5003174;28;20541;-80
2022/09/26 07:20:01;;;;;;;15.73;11.77;;;;;;;;;;5020019;28;20029;-81
2022/09/26 07:22:26;;;;;;;18.88;14.73;;;;;;;;;;5019679;28;20029;-80
2022/09/26 07:24:52;;;;;;;26.10;19.73;;;;;;;;;;5024692;28;20036;-80
2022/09/26 07:27:18;;;;;;;25.17;19.30;;;;;;;;;;5012445;28;20029;-80
2022/09/26 07:29:46;;;;;;;35.25;25.92;;;;;;;;;;4995589;28;20063;-81
2022/09/26 07:32:12;;;;;;;38.72;27.30;;;;;;;;;;5013874;28;20032;-80
2022/09/26 07:34:38;;;;;;;37.13;27.88;;;;;;;;;;5036968;28;20021;-80
2022/09/26 07:37:11;;;;;;;41.60;27.13;;;;;;;;;;5036963;28;20060;-81
2022/09/26 07:39:41;;;;;;;39.95;28.75;;;;;;;;;;5024038;28;20049;-81
2022/09/26 07:42:08;;;;;;;42.25;29.38;;;;;;;;;;5027392;28;20062;-81
2022/09/26 07:44:52;;;;;;;38.23;29.10;;;;;;;;;;5026560;28;20029;-81
2022/09/26 07:50:18;;;;;;;38.60;27.48;;;;;;;;;;5031329;28;20055;-81
2022/09/26 07:52:45;;;;;;;40.15;26.75;;;;;;;;;;5011576;28;20494;-81
2022/09/26 07:55:13;;;;;;;36.90;26.45;;;;;;;;;;5012069;28;20032;-82
2022/09/26 07:57:39;;;;;;;38.70;27.45;;;;;;;;;;5015461;28;20476;-82
2022/09/26 08:00:07;;;;;;;37.85;26.70;;;;;;;;;;5011143;28;20040;-81
2022/09/26 08:02:34;;;;;;;37.88;26.98;;;;;;;;;;5020596;28;20024;-82
2022/09/26 08:05:03;;;;;;;34.13;25.00;;;;;;;;;;5027769;28;20071;-81
2022/09/26 08:07:30;;;;;;;35.88;25.40;;;;;;;;;;5034483;28;20483;-81
2022/09/26 08:09:57;;;;;;;36.22;25.65;;;;;;;;;;5012122;28;20079;-81
2022/09/26 08:12:24;;;;;;;35.50;26.50;;;;;;;;;;5032786;28;20029;-82
2022/09/26 08:14:50;;;;;;;35.60;24.60;;;;;;;;;;5009755;28;20124;-82
2022/09/26 08:17:16;;;;;;;33.08;24.20;;;;;;;;;;5028845;28;20035;-81
2022/09/26 08:19:42;;;;;;;34.05;22.95;;;;;;;;;;5009650;28;20390;-82
2022/09/26 08:22:07;;;;;;;31.88;22.90;;;;;;;;;;5010081;28;20036;-82
2022/09/26 08:24:33;;;;;;;33.13;22.67;;;;;;;;;;5023751;28;20061;-82
2022/09/26 08:26:59;;;;;;;33.60;22.70;;;;;;;;;;5027180;28;20106;-81
2022/09/26 08:29:25;;;;;;;32.22;22.92;;;;;;;;;;5028066;28;20037;-82
2022/09/26 08:31:52;;;;;;;30.38;20.85;;;;;;;;;;5009709;28;20033;-82
2022/09/26 08:34:23;;;;;;;28.50;19.17;;;;;;;;;;5012055;28;20029;-83
2022/09/26 08:36:53;;;;;;;30.90;22.25;;;;;;;;;;5044440;28;20024;-81
2022/09/26 08:39:19;;;;;;;29.70;19.88;;;;;;;;;;5025227;28;20471;-82
2022/09/26 08:41:55;;;;;;;30.35;20.35;;;;;;;;;;5010157;28;20108;-82
2022/09/26 08:44:30;;;;;;;30.30;21.70;;;;;;;;;;5007077;28;20493;-81
2022/09/26 08:47:21;;;;;;;29.45;20.20;;;;;;;;;;5040474;28;20486;-81
2022/09/26 08:50:00;;;;;;;28.80;19.10;;;;;;;;;;5042053;28;20462;-81
2022/09/26 08:52:37;;;;;;;28.00;18.98;;;;;;;;;;5025701;28;20022;-81
2022/09/26 08:55:20;;;;;;;27.50;19.08;;;;;;;;;;5023076;28;20040;-81
2022/09/26 08:57:58;;;;;;;27.58;18.42;;;;;;;;;;5017981;28;20469;-82
2022/09/26 09:00:24;;;;;;;25.38;18.98;;;;;;;;;;5009399;28;20029;-82
2022/09/26 09:02:54;;;;;;;25.85;18.48;;;;;;;;;;5009214;28;20033;-82
2022/09/26 09:05:22;;;;;;;25.90;18.70;;;;;;;;;;5026958;28;20064;-80
2022/09/26 09:07:50;;;;;;;22.10;17.30;;;;;;;;;;5018143;28;20025;-81
2022/09/26 09:10:17;;;;;;;26.00;17.33;;;;;;;;;;5004772;28;20095;-82
2022/09/26 09:13:01;;;;;;;23.52;16.40;;;;;;;;;;5026030;28;20028;-82
2022/09/26 09:16:03;;;;;;;22.77;16.20;;;;;;;;;;5009347;28;20037;-81
2022/09/26 09:18:38;;;;;;;25.75;17.02;;;;;;;;;;5026689;28;20044;-81
2022/09/26 09:21:26;;;;;;;20.90;15.90;;;;;;;;;;5043400;28;20059;-81
2022/09/26 09:24:22;;;;;;;24.85;16.25;;;;;;;;;;5027943;28;20111;-81
2022/09/26 09:27:20;;;;;;;21.27;14.82;;;;;;;;;;5026406;28;20036;-82
2022/09/26 09:30:00;;;;;;;21.83;15.40;;;;;;;;;;5026333;28;20105;-80
2022/09/26 09:32:53;;;;;;;21.95;15.02;;;;;;;;;;5009372;28;20498;-81
2022/09/26 09:35:37;;;;;;;24.70;16.17;;;;;;;;;;5014899;28;20037;-80
2022/09/26 09:38:04;;;;;;;22.98;14.90;;;;;;;;;;5008624;28;20033;-81
2022/09/26 09:40:39;;;;;;;20.38;14.45;;;;;;;;;;5032325;28;20037;-80
2022/09/26 09:43:13;;;;;;;21.17;14.48;;;;;;;;;;5025487;28;20044;-80
2022/09/26 09:45:49;;;;;;;18.70;13.38;;;;;;;;;;4999660;28;20075;-80
2022/09/26 09:48:18;;;;;;;17.67;13.45;;;;;;;;;;5008133;28;20074;-81
2022/09/26 09:50:58;;;;;;;19.35;13.15;;;;;;;;;;5032314;28;20036;-82
2022/09/26 09:53:30;;;;;;;19.27;13.80;;;;;;;;;;5059794;28;20028;-80
2022/09/26 09:56:25;;;;;;;17.90;12.43;;;;;;;;;;5040079;28;20487;-80
2022/09/26 09:59:29;;;;;;;17.63;12.40;;;;;;;;;;5036353;28;20033;-81
2022/09/26 10:02:07;;;;;;;14.80;10.90;;;;;;;;;;5019751;28;20033;-81
2022/09/26 10:04:45;;;;;;;15.05;10.85;;;;;;;;;;5025901;28;20025;-81
2022/09/26 10:07:11;;;;;;;16.98;11.23;;;;;;;;;;5009014;28;20056;-81
2022/09/26 10:09:42;;;;;;;16.65;12.00;;;;;;;;;;5026679;28;20025;-80
2022/09/26 10:12:16;;;;;;;14.27;9.98;;;;;;;;;;5035037;28;20033;-80
2022/09/26 10:14:55;;;;;;;16.58;11.43;;;;;;;;;;5006767;28;20502;-80
2022/09/26 10:17:21;;;;;;;15.02;10.20;;;;;;;;;;5025936;28;20040;-81
2022/09/26 10:19:47;;;;;;;15.57;10.02;;;;;;;;;;5009262;28;20033;-80
2022/09/26 10:22:36;;;;;;;14.85;9.85;;;;;;;;;;5026547;28;20028;-81
2022/09/26 10:25:21;;;;;;;16.60;11.93;;;;;;;;;;5047109;28;20037;-81
2022/09/26 10:27:49;;;;;;;13.32;9.32;;;;;;;;;;5007115;28;20036;-80
2022/09/26 10:30:17;;;;;;;15.13;9.50;;;;;;;;;;5032375;28;20514;-81
2022/09/26 10:32:49;;;;;;;14.02;10.13;;;;;;;;;;5024033;28;20029;-81
2022/09/26 10:35:20;;;;;;;12.52;9.07;;;;;;;;;;5005824;28;20025;-81
2022/09/26 10:38:20;;;;;;;13.20;9.43;;;;;;;;;;5025061;28;20028;-81
2022/09/26 10:41:00;;;;;;;14.88;9.25;;;;;;;;;;5030817;28;20071;-81
2022/09/26 10:43:33;;;;;;;13.35;8.85;;;;;;;;;;5023471;28;20113;-81
2022/09/26 10:46:08;;;;;;;12.60;9.25;;;;;;;;;;5004094;28;20140;-81
2022/09/26 10:48:46;;;;;;;11.10;8.07;;;;;;;;;;5007794;28;20391;-81
2022/09/26 10:51:22;;;;;;;11.75;8.07;;;;;;;;;;5043383;28;20052;-80
2022/09/26 10:53:50;;;;;;;11.88;8.05;;;;;;;;;;5012583;28;20037;-82
2022/09/26 10:56:22;;;;;;;13.73;8.43;;;;;;;;;;5012721;28;20542;-81
2022/09/26 10:58:51;;;;;;;11.10;7.75;;;;;;;;;;5012943;28;20489;-80
2022/09/26 11:01:24;;;;;;;11.55;7.47;;;;;;;;;;5030423;28;20020;-80
2022/09/26 11:03:54;;;;;;;14.02;8.52;;;;;;;;;;5014155;28;20064;-81
2022/09/26 11:06:33;;;;;;;11.60;7.00;;;;;;;;;;5027467;28;20034;-81
2022/09/26 11:09:03;;;;;;;11.40;8.07;;;;;;;;;;5007912;28;20029;-80
2022/09/26 11:11:35;;;;;;;12.10;8.30;;;;;;;;;;5005245;28;20121;-79
2022/09/26 11:14:06;;;;;;;10.97;7.27;;;;;;;;;;5019871;28;20435;-80
2022/09/26 11:16:43;;;;;;;10.43;6.80;;;;;;;;;;5020621;28;20040;-80
2022/09/26 11:19:14;;;;;;;9.77;6.75;;;;;;;;;;5019712;28;20503;-80
2022/09/26 11:21:54;;;;;;;10.73;6.43;;;;;;;;;;5019898;28;20041;-81
2022/09/26 11:24:26;;;;;;;12.82;7.95;;;;;;;;;;5036235;28;20037;-81
2022/09/26 11:27:10;;;;;;;10.15;6.22;;;;;;;;;;5032979;28;20033;-81
2022/09/26 11:29:37;;;;;;;10.07;6.50;;;;;;;;;;5016168;28;20021;-81
2022/09/26 11:32:04;;;;;;;11.40;7.32;;;;;;;;;;5032986;28;20479;-81
2022/09/26 11:34:30;;;;;;;8.52;6.43;;;;;;;;;;5016432;28;20032;-82
2022/09/26 11:37:07;;;;;;;10.80;7.97;;;;;;;;;;5032824;28;20084;-83
2022/09/26 11:39:49;;;;;;;23.13;14.35;;;;;;;;;;5016181;28;20033;-82
2022/09/26 11:42:26;;;;;;;27.75;17.65;;;;;;;;;;5014956;28;20052;-81
2022/09/26 11:44:59;;;;;;;34.90;22.90;;;;;;;;;;5033308;28;20037;-81
2022/09/26 11:48:19;;;;;;;41.15;25.17;;;;;;;;;;5023082;28;20033;-81
2022/09/26 11:50:50;;;;;;;35.60;23.70;;;;;;;;;;4991769;28;20030;-81
2022/09/26 11:53:25;;;;;;;37.38;21.92;;;;;;;;;;5041960;28;20044;-81
2022/09/26 11:56:16;;;;;;;38.47;23.63;;;;;;;;;;5021063;28;20026;-81
2022/09/26 11:58:46;;;;;;;32.80;20.05;;;;;;;;;;4985483;28;20835;-81
2022/09/26 12:01:19;;;;;;;31.27;20.45;;;;;;;;;;4999536;28;20036;-81
2022/09/26 12:03:48;;;;;;;33.45;20.35;;;;;;;;;;4983327;28;20045;-81
2022/09/26 12:06:24;;;;;;;30.20;19.75;;;;;;;;;;5015646;28;20043;-81
2022/09/26 12:08:59;;;;;;;32.17;19.85;;;;;;;;;;4999298;28;20030;-81
2022/09/26 12:11:32;;;;;;;28.17;17.50;;;;;;;;;;5000923;28;20033;-82
2022/09/26 12:14:08;;;;;;;29.30;18.38;;;;;;;;;;5002790;28;20115;-81
2022/09/26 12:16:50;;;;;;;29.73;18.88;;;;;;;;;;5035430;28;20052;-81
2022/09/26 12:19:22;;;;;;;28.63;18.17;;;;;;;;;;4988711;28;20032;-82
2022/09/26 12:24:56;;;;;;;27.42;16.95;;;;;;;;;;5024832;28;20045;-82
2022/09/26 12:27:38;;;;;;;27.10;16.23;;;;;;;;;;5002122;28;20025;-82
2022/09/26 12:30:20;;;;;;;23.20;15.97;;;;;;;;;;5034600;28;20025;-81
2022/09/26 12:33:10;;;;;;;26.55;15.73;;;;;;;;;;5035273;28;20053;-82
2022/09/26 12:36:04;;;;;;;24.75;15.57;;;;;;;;;;5034619;28;20037;-83
2022/09/26 12:39:19;;;;;;;22.30;14.63;;;;;;;;;;5035215;28;20056;-82
2022/09/26 12:42:09;;;;;;;24.95;15.23;;;;;;;;;;5002360;28;20059;-82
2022/09/26 12:44:50;;;;;;;30.48;19.33;;;;;;;;;;5037279;28;20056;-82
2022/09/26 12:47:47;;;;;;;61.90;40.65;;;;;;;;;;5020422;28;20068;-83
2022/09/26 12:50:38;;;;;;;78.28;46.92;;;;;;;;;;5030814;28;20040;-83
2022/09/26 12:53:08;;;;;;;46.10;27.45;;;;;;;;;;5005595;28;20119;-82
2022/09/26 12:55:53;;;;;;;63.63;40.75;;;;;;;;;;5038028;28;20033;-83
2022/09/26 12:58:29;;;;;;;59.63;36.92;;;;;;;;;;5014626;28;20032;-82
2022/09/26 13:01:21;;;;;;;77.28;48.30;;;;;;;;;;4982970;28;20060;-82
2022/09/26 13:04:17;;;;;;;86.00;53.60;;;;;;;;;;4987290;28;20071;-82
2022/09/26 13:07:04;;;;;;;74.13;47.40;;;;;;;;;;5012838;28;20394;-82
2022/09/26 13:10:14;;;;;;;81.80;50.30;;;;;;;;;;5017831;28;20090;-82
2022/09/26 13:12:46;;;;;;;80.03;50.92;;;;;;;;;;5020129;28;20035;-82
2022/09/26 13:15:34;;;;;;;80.63;51.27;;;;;;;;;;5034218;28;20033;-81
2022/09/26 13:18:11;;;;;;;85.68;52.75;;;;;;;;;;5034115;28;20264;-81
2022/09/26 13:20:42;;;;;;;82.18;52.40;;;;;;;;;;5002179;28;20479;-81
2022/09/26 13:23:56;;;;;;;80.13;50.30;;;;;;;;;;5001785;28;20079;-81
2022/09/26 13:26:42;;;;;;;74.63;49.63;;;;;;;;;;5009646;28;20767;-81
2022/09/26 13:29:09;;;;;;;76.90;48.78;;;;;;;;;;4997677;28;20036;-81
2022/09/26 13:31:39;;;;;;;72.90;45.72;;;;;;;;;;5014156;28;20060;-81
2022/09/26 13:34:33;;;;;;;71.90;46.78;;;;;;;;;;5013891;28;20255;-81
2022/09/26 13:36:58;;;;;;;73.20;47.05;;;;;;;;;;4997338;28;20029;-82
2022/09/26 13:39:32;;;;;;;75.88;44.50;;;;;;;;;;5013548;28;20389;-82
2022/09/26 13:42:06;;;;;;;70.57;43.03;;;;;;;;;;5013603;28;20087;-84
2022/09/26 13:44:54;;;;;;;65.70;42.15;;;;;;;;;;5014041;28;20056;-84
2022/09/26 13:48:03;;;;;;;69.07;43.65;;;;;;;;;;5035872;28;20071;-84
2022/09/26 13:50:47;;;;;;;73.78;48.35;;;;;;;;;;5015516;28;20491;-84
2022/09/26 13:53:23;;;;;;;74.18;46.88;;;;;;;;;;5036752;28;20040;-84
2022/09/26 13:56:29;;;;;;;66.22;42.90;;;;;;;;;;5002986;28;20432;-83
2022/09/26 13:59:07;;;;;;;70.85;46.08;;;;;;;;;;5013832;28;20084;-82
2022/09/26 14:01:32;;;;;;;76.57;46.47;;;;;;;;;;4997441;28;20056;-83
2022/09/26 14:04:32;;;;;;;72.43;45.70;;;;;;;;;;4997168;28;20120;-83
2022/09/26 14:07:02;;;;;;;74.75;47.20;;;;;;;;;;4981448;28;20137;-82
2022/09/26 14:09:39;;;;;;;74.90;48.47;;;;;;;;;;4997067;28;20037;-82
2022/09/26 14:12:55;;;;;;;70.18;46.47;;;;;;;;;;4997284;28;20044;-82
2022/09/26 14:15:22;;;;;;;74.90;48.45;;;;;;;;;;5009824;28;20087;-82
2022/09/26 14:17:51;;;;;;;72.80;45.58;;;;;;;;;;5020675;28;20451;-82
2022/09/26 14:20:26;;;;;;;71.20;44.72;;;;;;;;;;5053513;28;20116;-82
2022/09/26 14:22:55;;;;;;;68.72;42.25;;;;;;;;;;5020184;28;20040;-82
2022/09/26 14:25:46;;;;;;;64.88;41.15;;;;;;;;;;5021540;28;20397;-82
2022/09/26 14:28:31;;;;;;;62.80;40.00;;;;;;;;;;5037055;28;20047;-82
2022/09/26 14:31:26;;;;;;;62.53;40.28;;;;;;;;;;5015833;28;20025;-81
2022/09/26 14:34:20;;;;;;;56.72;36.90;;;;;;;;;;5020084;28;20072;-82
2022/09/26 14:36:46;;;;;;;60.17;36.80;;;;;;;;;;5016854;28;20390;-81
2022/09/26 14:39:40;;;;;;;57.17;34.05;;;;;;;;;;5004786;28;20032;-82
2022/09/26 14:42:25;;;;;;;59.88;35.95;;;;;;;;;;5016802;28;20057;-82
2022/09/26 14:44:56;;;;;;;53.22;28.40;;;;;;;;;;5001047;28;20029;-81
2022/09/26 14:47:22;;;;;;;47.10;28.92;;;;;;;;;;5007770;28;20044;-81
2022/09/26 14:49:56;;;;;;;48.38;26.95;;;;;;;;;;5023591;28;20041;-82
2022/09/26 14:52:24;;;;;;;48.58;26.83;;;;;;;;;;5007789;28;20105;-82
2022/09/26 14:54:50;;;;;;;44.05;25.35;;;;;;;;;;5030695;28;20028;-82
2022/09/26 14:57:19;;;;;;;45.60;25.00;;;;;;;;;;4984666;28;20100;-81
2022/09/26 14:59:44;;;;;;;43.47;25.27;;;;;;;;;;5005270;28;20032;-81
2022/09/26 15:02:13;;;;;;;38.67;23.08;;;;;;;;;;5039748;28;20055;-81
2022/09/26 15:04:39;;;;;;;40.17;22.65;;;;;;;;;;5045595;28;20087;-81
2022/09/26 15:07:11;;;;;;;37.97;22.23;;;;;;;;;;4983197;28;20041;-81
2022/09/26 15:09:47;;;;;;;38.33;23.02;;;;;;;;;;4999898;28;20029;-82
2022/09/26 15:12:15;;;;;;;35.15;21.23;;;;;;;;;;5000122;28;20033;-81
2022/09/26 15:14:47;;;;;;;38.13;20.92;;;;;;;;;;4984100;28;20069;-82